Norman Wells, Canada
Current Conditions -  °F | °C
As of 1:00 AM on Friday 24 Oct 2014 (Local Time) from CYVQ Reporting Station
Light Snow Light Snow  
Wind Chill:   Ceiling: 1800
Heat Index: 19°   Visibility: 4mi
Dew Point: 16°   Wind: 18mph
Humidity: 86%   Direction: 280°W
Pressure: 29.81"   Gusts: NA
Location:  65.28°N, 126.83°W
Report Text: CYVQ 240700Z 28016KT 4SM -SN DRSN OVC018 M07/M09 A2981 RMK SN3SC5 SLP102
Loading
Personal Weather Stations






























Interactive Weather Map
Tropical Storm Tracking
New forecast layout! Learn more

10-Day Weather Forecast

Advertisements
Track Severe Weather on mobile